Time;durP1;ratioP1;P1;durP2;ratioP2;P2;SDS_P1;SDS_P2;PMS_P1;PMS_P2;Temp;Humidity;BMP_temperature;BMP_pressure;BME280_temperature;BME280_humidity;BME280_pressure;Samples;Min_cycle;Max_cycle;Signal;HPM_P1;HPM_P2
2022/07/27 00:02:20;;;;;;;7.15;2.22;;;16.40;99.90;;;;;;5075733;28;20631;-64
2022/07/27 00:04:45;;;;;;;5.90;2.05;;;16.40;99.90;;;;;;5075620;28;20197;-65
2022/07/27 00:07:12;;;;;;;4.55;2.10;;;16.40;99.90;;;;;;5075844;28;20170;-65
2022/07/27 00:09:38;;;;;;;5.75;2.00;;;16.30;99.90;;;;;;5091377;28;20186;-65
2022/07/27 00:12:04;;;;;;;5.97;2.00;;;16.40;99.90;;;;;;5076207;28;20666;-65
2022/07/27 00:14:30;;;;;;;5.30;2.17;;;16.40;99.90;;;;;;5075470;28;20746;-65
2022/07/27 00:16:56;;;;;;;4.60;1.92;;;16.40;99.90;;;;;;5075351;28;20288;-65
2022/07/27 00:19:22;;;;;;;3.60;1.83;;;16.40;99.90;;;;;;5075488;28;20184;-65
2022/07/27 00:21:49;;;;;;;5.18;2.13;;;16.40;99.90;;;;;;5075557;28;20166;-65
2022/07/27 00:24:15;;;;;;;3.63;1.95;;;16.40;99.90;;;;;;5075130;28;20204;-65
2022/07/27 00:26:40;;;;;;;3.45;2.08;;;16.30;99.90;;;;;;5075663;28;20549;-65
2022/07/27 00:29:06;;;;;;;3.63;2.13;;;16.30;99.90;;;;;;5075483;28;20545;-65
2022/07/27 00:31:32;;;;;;;6.00;1.90;;;16.20;99.90;;;;;;5075929;28;20188;-65
2022/07/27 00:33:58;;;;;;;6.43;1.92;;;16.20;99.90;;;;;;5075763;28;20274;-65
2022/07/27 00:36:24;;;;;;;3.60;2.00;;;16.20;99.90;;;;;;5076062;28;20657;-65
2022/07/27 00:38:49;;;;;;;5.30;2.00;;;16.20;99.90;;;;;;5090308;28;20174;-65
2022/07/27 00:41:15;;;;;;;5.57;2.30;;;16.20;99.90;;;;;;5056753;28;20169;-65
2022/07/27 00:43:56;;;;;;;4.63;2.40;;;16.20;99.90;;;;;;5075345;28;20190;-65
2022/07/27 00:46:23;;;;;;;3.53;2.38;;;16.10;99.90;;;;;;5091122;28;20182;-65
2022/07/27 00:48:50;;;;;;;3.38;2.20;;;16.10;99.90;;;;;;5075248;28;20177;-65
2022/07/27 00:51:17;;;;;;;4.82;2.05;;;16.10;99.90;;;;;;5075450;28;20189;-65
2022/07/27 00:53:44;;;;;;;6.53;2.25;;;16.00;99.90;;;;;;5075140;28;20328;-65
2022/07/27 00:56:10;;;;;;;4.32;2.10;;;16.00;99.90;;;;;;5074770;28;20205;-65
2022/07/27 00:58:37;;;;;;;6.90;2.25;;;15.90;99.90;;;;;;5075266;28;20639;-64
2022/07/27 01:01:04;;;;;;;6.57;2.20;;;15.90;99.90;;;;;;5074961;28;20204;-65
2022/07/27 01:03:30;;;;;;;4.03;2.65;;;15.80;99.90;;;;;;5074701;28;20236;-65
2022/07/27 01:05:57;;;;;;;4.85;2.30;;;15.70;99.90;;;;;;5074686;28;20249;-65
2022/07/27 01:08:24;;;;;;;4.03;2.13;;;15.70;99.90;;;;;;5075295;28;20642;-64
2022/07/27 01:10:51;;;;;;;2.20;1.70;;;15.70;99.90;;;;;;5074508;28;20301;-65
2022/07/27 01:13:17;;;;;;;5.18;1.90;;;15.70;99.90;;;;;;5074848;28;20190;-65
2022/07/27 01:15:43;;;;;;;3.40;2.00;;;15.80;99.90;;;;;;5074647;28;20255;-65
2022/07/27 01:18:26;;;;;;;2.67;2.00;;;15.80;99.90;;;;;;5090477;28;20249;-65
2022/07/27 01:20:52;;;;;;;3.90;2.00;;;15.80;99.90;;;;;;5075249;28;20249;-65
2022/07/27 01:23:17;;;;;;;9.73;2.50;;;15.70;99.90;;;;;;5075157;28;20531;-65
2022/07/27 01:25:43;;;;;;;7.00;2.33;;;15.70;99.90;;;;;;5075524;28;20247;-64
2022/07/27 01:28:09;;;;;;;2.80;2.03;;;15.60;99.90;;;;;;5075523;28;20268;-65
2022/07/27 01:30:35;;;;;;;4.15;2.00;;;15.60;99.90;;;;;;5074866;28;20174;-64
2022/07/27 01:33:02;;;;;;;5.47;2.25;;;15.60;99.90;;;;;;5075054;28;20193;-65
2022/07/27 01:35:28;;;;;;;4.75;2.17;;;15.60;99.90;;;;;;5073983;28;20647;-64
2022/07/27 01:37:54;;;;;;;3.75;2.33;;;15.60;99.90;;;;;;5089684;28;20186;-64
2022/07/27 01:40:21;;;;;;;3.50;2.30;;;15.60;99.90;;;;;;5074390;28;20207;-65
2022/07/27 01:42:47;;;;;;;6.85;2.40;;;15.60;99.90;;;;;;5074212;28;20162;-65
2022/07/27 01:45:13;;;;;;;4.22;2.17;;;15.50;99.90;;;;;;5074387;28;20174;-64
2022/07/27 01:47:38;;;;;;;3.20;2.20;;;15.50;99.90;;;;;;5074223;28;20245;-65
2022/07/27 01:50:05;;;;;;;5.00;2.00;;;15.50;99.90;;;;;;5089639;28;20185;-65
2022/07/27 01:52:31;;;;;;;3.50;2.03;;;15.50;99.90;;;;;;5073919;28;20539;-65
2022/07/27 01:54:57;;;;;;;6.22;2.20;;;15.50;99.90;;;;;;5074005;28;20276;-65
2022/07/27 01:57:23;;;;;;;5.70;2.47;;;15.60;99.90;;;;;;5089646;28;20205;-64
2022/07/27 01:59:49;;;;;;;4.57;2.13;;;15.60;99.90;;;;;;5089707;28;20634;-66
2022/07/27 02:02:15;;;;;;;4.82;2.40;;;15.50;99.90;;;;;;5073978;28;20161;-65
2022/07/27 02:04:41;;;;;;;4.18;2.85;;;15.50;99.90;;;;;;5073967;28;20194;-65
2022/07/27 02:07:07;;;;;;;5.22;2.30;;;15.50;99.90;;;;;;5074366;28;20519;-65
2022/07/27 02:09:33;;;;;;;3.13;2.55;;;15.50;99.90;;;;;;5073233;28;20261;-65
2022/07/27 02:14:43;;;;;;;2.70;2.30;;;15.50;99.90;;;;;;5073817;28;20240;-65
2022/07/27 02:17:09;;;;;;;6.85;2.53;;;15.50;99.90;;;;;;5073502;28;20229;-65
2022/07/27 02:19:34;;;;;;;3.50;2.35;;;15.50;99.90;;;;;;5073579;28;20658;-65
2022/07/27 02:22:00;;;;;;;4.50;2.25;;;15.40;99.90;;;;;;5073391;28;20219;-65
2022/07/27 02:24:26;;;;;;;3.75;2.22;;;15.50;99.90;;;;;;5073355;28;20198;-66
2022/07/27 02:26:52;;;;;;;6.05;2.22;;;15.50;99.90;;;;;;5073829;28;20205;-65
2022/07/27 02:29:18;;;;;;;4.53;2.42;;;15.50;99.90;;;;;;5073441;28;20239;-65
2022/07/27 02:31:44;;;;;;;2.38;1.92;;;15.50;99.90;;;;;;5073231;28;20177;-65
2022/07/27 02:34:09;;;;;;;9.73;2.30;;;15.40;99.90;;;;;;5073311;28;20277;-65
2022/07/27 02:36:35;;;;;;;3.10;2.25;;;15.30;99.90;;;;;;5088741;28;20205;-65
2022/07/27 02:39:01;;;;;;;3.47;2.03;;;15.30;99.90;;;;;;5073231;28;20210;-65
2022/07/27 02:41:27;;;;;;;2.88;2.22;;;15.30;99.90;;;;;;5073005;28;20161;-65
2022/07/27 02:43:52;;;;;;;7.40;2.00;;;15.30;99.90;;;;;;5055259;28;20299;-65
2022/07/27 02:46:18;;;;;;;3.47;2.33;;;15.40;99.90;;;;;;5088753;28;20181;-65
2022/07/27 02:48:44;;;;;;;7.15;2.42;;;15.30;99.90;;;;;;5073208;28;20177;-65
2022/07/27 02:51:10;;;;;;;2.78;2.20;;;15.30;99.90;;;;;;5088620;28;20178;-65
2022/07/27 02:53:35;;;;;;;5.53;2.45;;;15.30;99.90;;;;;;5073360;28;20193;-65
2022/07/27 02:56:01;;;;;;;4.15;2.05;;;15.30;99.90;;;;;;5073006;28;20220;-65
2022/07/27 02:58:27;;;;;;;4.10;2.45;;;15.20;99.90;;;;;;5073717;28;20178;-65
2022/07/27 03:00:52;;;;;;;4.40;2.25;;;15.20;99.90;;;;;;5073024;28;20170;-65
2022/07/27 03:03:18;;;;;;;3.78;2.20;;;15.10;99.90;;;;;;5074717;28;20194;-65
2022/07/27 03:05:44;;;;;;;4.93;2.30;;;15.10;99.90;;;;;;5092230;28;20189;-65
2022/07/27 03:08:10;;;;;;;4.28;2.42;;;15.00;99.90;;;;;;5077201;28;20205;-65
2022/07/27 03:10:36;;;;;;;7.03;2.50;;;14.90;99.90;;;;;;5076534;28;20715;-65
2022/07/27 03:13:02;;;;;;;4.88;2.35;;;14.80;99.90;;;;;;5076622;28;20190;-65
2022/07/27 03:15:28;;;;;;;5.95;2.30;;;14.80;99.90;;;;;;5076413;28;20170;-66
2022/07/27 03:17:54;;;;;;;3.70;2.40;;;14.70;99.90;;;;;;5076798;28;20178;-65
2022/07/27 03:20:19;;;;;;;4.45;2.60;;;14.70;99.90;;;;;;5076551;28;20170;-65
2022/07/27 03:22:45;;;;;;;5.75;2.80;;;14.60;99.90;;;;;;5076398;28;20177;-65
2022/07/27 03:25:11;;;;;;;4.53;2.25;;;14.60;99.90;;;;;;5091847;28;20209;-65
2022/07/27 03:27:37;;;;;;;5.13;2.50;;;14.50;99.90;;;;;;5093193;28;20265;-66
2022/07/27 03:30:04;;;;;;;4.30;2.70;;;14.50;99.90;;;;;;5077293;28;20186;-67
2022/07/27 03:32:31;;;;;;;3.30;2.40;;;14.40;99.90;;;;;;5076857;28;20189;-67
2022/07/27 03:34:57;;;;;;;3.75;2.40;;;14.40;99.90;;;;;;5076560;28;20251;-66
2022/07/27 03:37:22;;;;;;;8.25;2.45;;;14.40;99.90;;;;;;5076598;28;20705;-66
2022/07/27 03:39:48;;;;;;;3.90;2.50;;;14.40;99.90;;;;;;5091857;28;20651;-67
2022/07/27 03:42:14;;;;;;;4.90;2.60;;;14.30;99.90;;;;;;5076843;28;20174;-67
2022/07/27 03:44:40;;;;;;;3.95;2.53;;;14.30;99.90;;;;;;5076567;28;20197;-67
2022/07/27 03:47:05;;;;;;;5.47;2.85;;;14.30;99.90;;;;;;5076549;28;20227;-67
2022/07/27 03:49:31;;;;;;;5.72;3.05;;;14.40;99.90;;;;;;5077244;28;20212;-67
2022/07/27 03:51:57;;;;;;;3.75;2.53;;;14.40;99.90;;;;;;5092006;28;20182;-67
2022/07/27 03:54:23;;;;;;;4.43;2.58;;;14.40;99.90;;;;;;5076367;28;20205;-67
2022/07/27 03:56:48;;;;;;;4.38;2.30;;;14.40;99.90;;;;;;5075918;28;20208;-67
2022/07/27 03:59:14;;;;;;;5.35;2.90;;;14.40;99.90;;;;;;5092086;28;20177;-67
2022/07/27 04:01:40;;;;;;;4.95;2.70;;;14.40;99.90;;;;;;5076191;28;20566;-67
2022/07/27 04:04:06;;;;;;;4.82;2.72;;;14.40;99.90;;;;;;5076207;28;20209;-67
2022/07/27 04:06:32;;;;;;;4.47;3.33;;;14.40;99.90;;;;;;5076581;28;20162;-66
2022/07/27 04:08:57;;;;;;;3.25;2.95;;;14.40;99.90;;;;;;5091707;28;20551;-67
2022/07/27 04:11:23;;;;;;;4.68;2.70;;;14.40;99.90;;;;;;5075627;28;20184;-67
2022/07/27 04:13:49;;;;;;;5.47;3.00;;;14.40;99.90;;;;;;5091513;28;20201;-67
2022/07/27 04:16:15;;;;;;;4.88;3.00;;;14.40;99.90;;;;;;5075849;28;20653;-67
2022/07/27 04:18:41;;;;;;;3.15;2.65;;;14.40;99.90;;;;;;5091516;28;20177;-67
2022/07/27 04:21:07;;;;;;;4.95;3.10;;;14.30;99.90;;;;;;5091542;28;20170;-67
2022/07/27 04:23:33;;;;;;;4.70;2.72;;;14.30;99.90;;;;;;5075655;28;20689;-67
2022/07/27 04:25:59;;;;;;;4.13;2.90;;;14.30;99.90;;;;;;5075491;28;20177;-67
2022/07/27 04:28:24;;;;;;;7.60;3.05;;;14.30;99.90;;;;;;5076061;28;20177;-67
2022/07/27 04:30:50;;;;;;;9.60;2.90;;;14.20;99.90;;;;;;5075689;28;20543;-67
2022/07/27 04:33:16;;;;;;;7.88;2.90;;;14.10;99.90;;;;;;5075516;28;20197;-66
2022/07/27 04:35:43;;;;;;;9.52;3.25;;;14.10;99.90;;;;;;5075397;28;20186;-68
2022/07/27 04:38:09;;;;;;;6.82;3.08;;;14.10;99.90;;;;;;5091101;28;20542;-65
2022/07/27 04:40:35;;;;;;;4.55;2.80;;;14.10;99.90;;;;;;5074783;28;20699;-65
2022/07/27 04:43:03;;;;;;;5.70;3.22;;;14.00;99.90;;;;;;5075449;28;20225;-65
2022/07/27 04:45:29;;;;;;;4.72;3.15;;;14.00;99.90;;;;;;5090514;28;20184;-65
2022/07/27 04:47:54;;;;;;;9.25;3.33;;;14.00;99.90;;;;;;5056885;28;20265;-65
2022/07/27 04:50:20;;;;;;;5.93;3.63;;;14.00;99.90;;;;;;5074848;28;20257;-65
2022/07/27 04:52:46;;;;;;;7.13;3.80;;;14.10;99.90;;;;;;5074884;28;20174;-66
2022/07/27 04:55:12;;;;;;;8.30;3.75;;;14.10;99.90;;;;;;5074393;28;20174;-65
2022/07/27 04:57:40;;;;;;;10.65;3.90;;;14.10;99.90;;;;;;5075123;28;20217;-65
2022/07/27 05:00:08;;;;;;;6.80;3.88;;;14.10;99.90;;;;;;5074502;28;20248;-65
2022/07/27 05:02:37;;;;;;;7.70;4.00;;;14.20;99.90;;;;;;5090060;28;20243;-65
2022/07/27 05:05:03;;;;;;;5.32;3.70;;;14.30;99.90;;;;;;5074314;28;20205;-65
2022/07/27 05:07:29;;;;;;;7.45;3.35;;;14.40;99.90;;;;;;5074873;28;20669;-65
2022/07/27 05:09:55;;;;;;;6.35;3.63;;;14.40;99.90;;;;;;5074316;28;20173;-65
2022/07/27 05:12:21;;;;;;;5.00;3.97;;;14.40;99.90;;;;;;5074466;28;20249;-65
2022/07/27 05:14:46;;;;;;;6.20;3.88;;;14.40;99.90;;;;;;5074228;28;20273;-65
2022/07/27 05:17:12;;;;;;;10.07;4.00;;;14.30;99.90;;;;;;5074185;28;20576;-65
2022/07/27 05:19:38;;;;;;;6.22;4.15;;;14.30;99.90;;;;;;5074175;28;20174;-65
2022/07/27 05:22:03;;;;;;;5.47;4.43;;;14.40;99.90;;;;;;5074158;28;20180;-65
2022/07/27 05:24:29;;;;;;;6.75;4.05;;;14.40;99.90;;;;;;5074281;28;20193;-65
2022/07/27 05:26:55;;;;;;;9.32;4.93;;;14.40;99.90;;;;;;5073198;28;20174;-65
2022/07/27 05:29:21;;;;;;;8.40;4.80;;;14.50;99.90;;;;;;5074635;28;20687;-65
2022/07/27 05:31:46;;;;;;;6.38;4.72;;;14.60;99.90;;;;;;5074049;28;20208;-65
2022/07/27 05:34:12;;;;;;;4.03;3.35;;;14.70;99.90;;;;;;5073795;28;20260;-65
2022/07/27 05:36:38;;;;;;;8.00;3.83;;;14.70;99.90;;;;;;5074071;28;20232;-65
2022/07/27 05:39:04;;;;;;;8.88;3.70;;;14.80;99.90;;;;;;5089447;28;20181;-65
2022/07/27 05:41:29;;;;;;;6.05;3.50;;;14.80;99.90;;;;;;5073474;28;20189;-65
2022/07/27 05:43:55;;;;;;;4.80;3.58;;;14.90;99.90;;;;;;5073771;28;20189;-65
2022/07/27 05:46:21;;;;;;;4.65;3.17;;;15.00;99.90;;;;;;5073799;28;20174;-65
2022/07/27 05:48:48;;;;;;;3.60;3.22;;;15.00;99.90;;;;;;5073815;28;20307;-65
2022/07/27 05:51:13;;;;;;;4.20;3.25;;;15.10;99.90;;;;;;5073641;28;20170;-65
2022/07/27 05:53:39;;;;;;;5.38;3.58;;;15.10;99.90;;;;;;5073721;28;20204;-65
2022/07/27 05:56:06;;;;;;;5.88;3.45;;;15.10;99.90;;;;;;5073509;28;20194;-64
2022/07/27 05:58:32;;;;;;;6.82;3.70;;;15.20;99.90;;;;;;5074141;28;20202;-65
2022/07/27 06:00:58;;;;;;;7.95;3.55;;;15.30;99.90;;;;;;5073593;28;20712;-65
2022/07/27 06:03:25;;;;;;;8.90;3.80;;;15.30;99.90;;;;;;5073404;28;20690;-65
2022/07/27 06:05:51;;;;;;;7.05;3.78;;;15.40;99.90;;;;;;5073716;28;20213;-65
2022/07/27 06:08:17;;;;;;;6.80;3.80;;;15.40;99.90;;;;;;5073687;28;20209;-66
2022/07/27 06:10:43;;;;;;;6.55;4.03;;;15.40;99.90;;;;;;5073462;28;20178;-65
2022/07/27 06:13:12;;;;;;;5.32;3.38;;;15.40;99.90;;;;;;5073847;28;20199;-65
2022/07/27 06:15:39;;;;;;;12.73;4.15;;;15.40;99.90;;;;;;5089369;28;20190;-65
2022/07/27 06:18:07;;;;;;;6.95;4.10;;;15.50;99.90;;;;;;5089235;28;20170;-65
2022/07/27 06:20:33;;;;;;;5.20;3.30;;;15.50;99.90;;;;;;5073443;28;20638;-65
2022/07/27 06:23:02;;;;;;;5.32;3.80;;;15.50;99.90;;;;;;5073316;28;20174;-65
2022/07/27 06:25:31;;;;;;;5.20;3.15;;;15.60;99.90;;;;;;5073398;28;20166;-65
2022/07/27 06:27:57;;;;;;;6.55;3.38;;;15.60;99.90;;;;;;5073671;28;20169;-65
2022/07/27 06:30:22;;;;;;;6.03;2.78;;;15.70;99.90;;;;;;5073890;28;20212;-65
2022/07/27 06:32:48;;;;;;;6.93;2.80;;;15.80;99.90;;;;;;5088827;28;20659;-66
2022/07/27 06:35:14;;;;;;;7.25;3.35;;;15.80;99.90;;;;;;5060000;28;20179;-65
2022/07/27 06:37:43;;;;;;;7.20;3.22;;;15.80;99.90;;;;;;5054277;28;20225;-65
2022/07/27 06:40:12;;;;;;;7.60;2.78;;;15.80;99.90;;;;;;5039233;28;20713;-66
2022/07/27 06:42:39;;;;;;;5.80;3.13;;;15.90;99.90;;;;;;5057480;28;20258;-65
2022/07/27 06:45:06;;;;;;;4.80;3.22;;;15.90;99.90;;;;;;5057680;28;20194;-65
2022/07/27 06:47:32;;;;;;;6.78;2.90;;;15.90;99.90;;;;;;5057617;28;20231;-65
2022/07/27 06:49:58;;;;;;;7.07;2.70;;;16.00;99.90;;;;;;5072374;28;20179;-65
2022/07/27 06:52:24;;;;;;;8.82;2.75;;;15.90;99.90;;;;;;5057136;28;20286;-65
2022/07/27 06:54:49;;;;;;;5.97;2.92;;;15.90;99.90;;;;;;5038877;28;20566;-65
2022/07/27 06:57:15;;;;;;;5.70;2.80;;;15.80;99.90;;;;;;5056609;28;20194;-65
2022/07/27 06:59:41;;;;;;;5.35;2.40;;;15.90;99.90;;;;;;5072214;28;20710;-65
2022/07/27 07:02:07;;;;;;;5.13;2.25;;;16.00;99.90;;;;;;5057365;28;20551;-65
2022/07/27 07:04:33;;;;;;;4.78;2.30;;;16.10;99.90;;;;;;5064622;28;20197;-65
2022/07/27 07:07:00;;;;;;;4.05;2.10;;;16.30;99.90;;;;;;5076944;28;20173;-65
2022/07/27 07:09:29;;;;;;;5.63;2.70;;;16.30;99.90;;;;;;5076736;28;20174;-65
2022/07/27 07:11:56;;;;;;;3.47;2.30;;;16.40;99.90;;;;;;5092038;28;20182;-65
2022/07/27 07:14:22;;;;;;;3.67;2.22;;;16.60;99.90;;;;;;5076540;28;20200;-65
2022/07/27 07:16:48;;;;;;;3.40;1.70;;;16.70;99.90;;;;;;5076561;28;20259;-65
2022/07/27 07:19:15;;;;;;;4.25;2.20;;;16.80;99.90;;;;;;5076451;28;20658;-65
2022/07/27 07:21:41;;;;;;;4.50;2.00;;;16.70;99.90;;;;;;5076527;28;20158;-65
2022/07/27 07:24:07;;;;;;;4.95;2.13;;;16.80;99.90;;;;;;5091883;28;20243;-65
2022/07/27 07:26:32;;;;;;;3.28;2.13;;;16.80;99.90;;;;;;5091858;28;20272;-65
2022/07/27 07:28:59;;;;;;;6.45;2.20;;;16.80;99.90;;;;;;5076403;28;20261;-65
2022/07/27 07:31:24;;;;;;;3.95;2.20;;;16.90;99.90;;;;;;5076349;28;20186;-65
2022/07/27 07:33:50;;;;;;;3.75;2.30;;;16.80;99.90;;;;;;5076531;28;20232;-65
2022/07/27 07:36:16;;;;;;;3.15;1.83;;;16.80;99.90;;;;;;5076943;28;20550;-65
2022/07/27 07:38:43;;;;;;;7.15;2.03;;;16.90;99.90;;;;;;5076624;28;20647;-65
2022/07/27 07:41:09;;;;;;;6.32;1.95;;;17.10;99.90;;;;;;5092315;28;20185;-65
2022/07/27 07:43:37;;;;;;;2.15;1.90;;;17.20;99.90;;;;;;5076476;28;20235;-65
2022/07/27 07:46:03;;;;;;;3.17;1.80;;;17.20;99.90;;;;;;5076389;28;20706;-65
2022/07/27 07:48:29;;;;;;;2.95;1.80;;;17.40;99.90;;;;;;5075652;28;20224;-65
2022/07/27 07:50:55;;;;;;;4.57;1.90;;;17.50;99.90;;;;;;5076186;28;20178;-65
2022/07/27 07:53:22;;;;;;;3.40;1.77;;;17.60;99.90;;;;;;5076119;28;20189;-65
2022/07/27 07:55:48;;;;;;;2.80;1.75;;;17.60;99.90;;;;;;5075688;28;20257;-65
2022/07/27 07:58:13;;;;;;;6.70;1.77;;;17.60;99.90;;;;;;5091674;28;20197;-65
2022/07/27 08:00:40;;;;;;;3.45;1.70;;;17.70;99.90;;;;;;5075870;28;20177;-65
2022/07/27 08:03:06;;;;;;;1.65;1.55;;;17.70;99.90;;;;;;5092347;28;20194;-65
2022/07/27 08:05:32;;;;;;;3.25;1.80;;;17.70;99.90;;;;;;5075959;28;20518;-65
2022/07/27 08:07:58;;;;;;;4.38;2.03;;;17.50;99.90;;;;;;5091906;28;20626;-65
2022/07/27 08:10:24;;;;;;;3.97;1.95;;;17.50;99.90;;;;;;5076653;28;20573;-65
2022/07/27 08:12:53;;;;;;;3.80;1.90;;;17.30;99.90;;;;;;5091926;28;20206;-66
2022/07/27 08:15:20;;;;;;;5.70;1.90;;;17.40;99.90;;;;;;5076191;28;20174;-65
2022/07/27 08:17:46;;;;;;;7.55;1.88;;;17.30;99.90;;;;;;5076416;28;20230;-65
2022/07/27 08:20:14;;;;;;;3.58;1.70;;;17.30;99.90;;;;;;5091423;28;20590;-65
2022/07/27 08:22:40;;;;;;;1.85;1.70;;;17.30;99.90;;;;;;5075767;28;20170;-65
2022/07/27 08:25:07;;;;;;;3.15;1.70;;;17.40;99.90;;;;;;5083286;28;20620;-65
2022/07/27 08:27:35;;;;;;;4.38;1.50;;;17.40;99.90;;;;;;5064069;28;20190;-66
2022/07/27 08:30:01;;;;;;;3.95;1.70;;;17.40;99.90;;;;;;5055516;28;20151;-65
2022/07/27 08:32:27;;;;;;;4.15;1.73;;;17.40;99.90;;;;;;5055697;28;20185;-65
2022/07/27 08:34:54;;;;;;;4.05;1.85;;;17.40;99.90;;;;;;5070635;28;20264;-65
2022/07/27 08:37:20;;;;;;;4.35;1.58;;;17.50;99.90;;;;;;5070612;28;20202;-65
2022/07/27 08:39:45;;;;;;;2.20;1.88;;;17.70;99.90;;;;;;5037269;28;20196;-65
2022/07/27 08:42:12;;;;;;;6.18;1.58;;;17.80;99.90;;;;;;5037333;28;20170;-65
2022/07/27 08:44:40;;;;;;;4.28;1.80;;;17.80;99.90;;;;;;5055257;28;20659;-65
2022/07/27 08:47:09;;;;;;;3.72;1.67;;;17.80;99.90;;;;;;5055261;28;20254;-65
2022/07/27 08:49:40;;;;;;;2.83;1.50;;;17.70;99.90;;;;;;5038190;28;20190;-65
2022/07/27 08:52:09;;;;;;;4.75;1.73;;;17.60;99.90;;;;;;5055049;28;20159;-65
2022/07/27 08:54:37;;;;;;;5.10;2.20;;;17.40;99.90;;;;;;5055039;28;20205;-65
2022/07/27 08:57:03;;;;;;;2.13;1.70;;;17.40;99.90;;;;;;5054833;28;20240;-65
2022/07/27 08:59:29;;;;;;;4.32;1.92;;;17.40;99.90;;;;;;5055082;28;20249;-65
2022/07/27 09:01:55;;;;;;;1.42;1.30;;;17.70;99.90;;;;;;5054980;28;20174;-65
2022/07/27 09:04:21;;;;;;;6.03;2.60;;;18.00;99.90;;;;;;5054808;28;20207;-65
2022/07/27 09:06:49;;;;;;;1.73;1.60;;;18.10;99.90;;;;;;5054875;28;20171;-63
2022/07/27 09:09:18;;;;;;;2.20;1.58;;;18.20;99.90;;;;;;5055007;28;20183;-63
2022/07/27 09:12:04;;;;;;;1.60;1.50;;;18.30;99.90;;;;;;5056339;28;20181;-63
2022/07/27 09:14:31;;;;;;;1.83;1.33;;;18.30;99.90;;;;;;5055236;28;20201;-63
2022/07/27 09:16:57;;;;;;;1.50;1.40;;;18.20;99.90;;;;;;5054864;28;20236;-63
2022/07/27 09:19:25;;;;;;;3.13;1.52;;;18.20;99.90;;;;;;5037588;28;20198;-63
2022/07/27 09:21:50;;;;;;;2.05;1.52;;;18.10;99.90;;;;;;5036991;28;20181;-63
2022/07/27 09:24:16;;;;;;;1.50;1.40;;;18.10;99.90;;;;;;5054377;28;20265;-64
2022/07/27 09:26:42;;;;;;;5.15;1.55;;;18.10;99.90;;;;;;5036271;28;20265;-65
2022/07/27 09:29:11;;;;;;;2.20;1.50;;;18.20;99.90;;;;;;5054738;28;20189;-65
2022/07/27 09:31:49;;;;;;;1.60;1.50;;;18.20;99.90;;;;;;5036644;28;20184;-69
2022/07/27 09:34:32;;;;;;;2.42;1.80;;;18.30;99.90;;;;;;5054199;28;20617;-69
2022/07/27 09:36:59;;;;;;;1.80;1.55;;;18.20;99.90;;;;;;5054538;28;20182;-70
2022/07/27 09:39:26;;;;;;;2.45;1.80;;;18.40;99.90;;;;;;5036299;28;20189;-70
2022/07/27 09:42:00;;;;;;;3.15;1.70;;;18.60;99.90;;;;;;5036115;28;20273;-70
2022/07/27 09:44:38;;;;;;;4.03;1.85;;;18.70;99.90;;;;;;5054555;28;20216;-70
2022/07/27 09:47:19;;;;;;;1.85;1.58;;;18.80;99.90;;;;;;5069454;28;20181;-68
2022/07/27 09:49:45;;;;;;;4.65;1.70;;;19.10;99.90;;;;;;5053991;28;20167;-68
2022/07/27 09:52:29;;;;;;;2.38;1.58;;;19.70;99.90;;;;;;5054047;28;20185;-68
2022/07/27 09:55:04;;;;;;;2.83;1.77;;;19.90;99.90;;;;;;5053750;28;20221;-68
2022/07/27 09:57:30;;;;;;;3.05;1.80;;;19.80;99.90;;;;;;5035679;28;20206;-68
2022/07/27 10:00:12;;;;;;;5.78;1.60;;;19.70;99.90;;;;;;5035826;28;20231;-68
2022/07/27 10:02:39;;;;;;;2.25;1.80;;;19.60;99.90;;;;;;5053691;28;20166;-68
2022/07/27 10:05:06;;;;;;;5.82;1.80;;;19.50;99.90;;;;;;5053803;28;20235;-68
2022/07/27 10:07:32;;;;;;;3.50;1.88;;;19.30;99.90;;;;;;5053964;28;20171;-68
2022/07/27 10:10:01;;;;;;;2.33;1.90;;;19.30;99.90;;;;;;5053922;28;20539;-68
2022/07/27 10:12:30;;;;;;;3.95;1.95;;;19.30;99.90;;;;;;5053554;28;20162;-68
2022/07/27 10:14:56;;;;;;;1.45;1.35;;;19.30;99.90;;;;;;5035814;28;20205;-68
2022/07/27 10:17:23;;;;;;;3.67;1.60;;;19.30;99.90;;;;;;5055486;28;20210;-68
2022/07/27 10:19:52;;;;;;;3.55;1.70;;;19.30;99.90;;;;;;5054097;28;20187;-66
2022/07/27 10:22:47;;;;;;;3.45;1.63;;;19.30;99.90;;;;;;5036088;28;20345;-65
2022/07/27 10:25:13;;;;;;;5.25;2.25;;;19.50;99.90;;;;;;5035941;28;20531;-65
2022/07/27 10:27:39;;;;;;;4.70;1.63;;;19.60;99.90;;;;;;5053921;28;20174;-65
2022/07/27 10:30:06;;;;;;;3.80;1.85;;;19.90;99.90;;;;;;5035995;28;20186;-64
2022/07/27 10:32:33;;;;;;;3.53;2.17;;;20.30;99.90;;;;;;5053072;28;20201;-61
2022/07/27 10:35:00;;;;;;;5.97;1.80;;;20.70;99.90;;;;;;5052959;28;20300;-61
2022/07/27 10:37:29;;;;;;;4.53;1.50;;;20.80;99.90;;;;;;5052925;28;20277;-61
2022/07/27 10:42:44;;;;;;;3.08;2.28;;;20.30;99.90;;;;;;5053238;28;20205;-61
2022/07/27 10:45:12;;;;;;;3.53;1.98;;;20.10;99.90;;;;;;5053579;28;20593;-61
2022/07/27 10:47:43;;;;;;;5.45;1.90;;;19.90;99.90;;;;;;5052987;28;20190;-61
2022/07/27 10:50:15;;;;;;;3.05;1.50;;;19.90;99.90;;;;;;5053471;28;20178;-61
2022/07/27 10:52:45;;;;;;;3.67;1.60;;;19.90;99.90;;;;;;5053227;28;20706;-61
2022/07/27 10:55:29;;;;;;;1.80;1.67;;;19.90;99.90;;;;;;5053063;28;20212;-62
2022/07/27 10:58:13;;;;;;;1.95;1.50;;;20.20;99.90;;;;;;5034743;28;20233;-61
2022/07/27 11:00:48;;;;;;;3.47;1.48;;;20.30;99.90;;;;;;5035013;28;20182;-61
2022/07/27 11:03:34;;;;;;;4.60;1.65;;;20.40;99.90;;;;;;5035126;28;20205;-61
2022/07/27 11:06:09;;;;;;;5.28;1.77;;;20.30;99.90;;;;;;5052849;28;20174;-61
2022/07/27 11:08:41;;;;;;;2.65;1.55;;;20.50;99.90;;;;;;5052746;28;20162;-61
2022/07/27 11:11:09;;;;;;;2.15;1.70;;;20.60;99.90;;;;;;5052915;28;20159;-61
2022/07/27 11:13:35;;;;;;;4.13;1.80;;;20.90;99.90;;;;;;5052611;28;20278;-61
2022/07/27 11:16:07;;;;;;;4.18;2.08;;;20.80;99.90;;;;;;5034763;28;20199;-61
2022/07/27 11:18:35;;;;;;;3.47;1.58;;;20.70;99.90;;;;;;5053028;28;20244;-61
2022/07/27 11:21:17;;;;;;;5.10;1.42;;;20.80;99.90;;;;;;5052646;28;20639;-62
2022/07/27 11:23:45;;;;;;;2.70;1.38;;;21.10;99.90;;;;;;5053554;28;20194;-62
2022/07/27 11:26:12;;;;;;;3.25;1.85;;;21.40;99.90;;;;;;5038290;28;20179;-62
2022/07/27 11:28:38;;;;;;;4.40;1.42;;;21.60;99.90;;;;;;5056364;28;20220;-61
2022/07/27 11:31:05;;;;;;;7.22;1.70;;;21.50;99.90;;;;;;5056492;28;20187;-61
2022/07/27 11:33:31;;;;;;;5.63;1.60;;;21.40;99.90;;;;;;5056191;28;20244;-61
2022/07/27 11:36:05;;;;;;;3.40;1.42;;;21.10;99.90;;;;;;5055973;28;20178;-64
2022/07/27 11:38:54;;;;;;;2.25;1.40;;;20.80;99.90;;;;;;5038244;28;20171;-64
2022/07/27 11:41:22;;;;;;;5.05;1.70;;;20.70;99.90;;;;;;5050256;28;20557;-64
2022/07/27 11:43:48;;;;;;;5.05;1.80;;;20.50;99.90;;;;;;5056139;28;20209;-63
2022/07/27 11:46:32;;;;;;;5.30;1.60;;;20.30;99.90;;;;;;5055934;28;20639;-61
2022/07/27 11:49:06;;;;;;;4.47;1.73;;;20.30;99.90;;;;;;5055848;28;20651;-61
2022/07/27 11:51:34;;;;;;;2.97;1.52;;;20.40;99.90;;;;;;5055771;28;20190;-61
2022/07/27 11:54:11;;;;;;;7.30;1.95;;;21.10;99.90;;;;;;5055827;28;20212;-61
2022/07/27 11:56:42;;;;;;;3.13;1.70;;;21.60;99.90;;;;;;5037559;28;20248;-61
2022/07/27 11:59:16;;;;;;;3.83;1.60;;;22.00;99.90;;;;;;5056286;28;20193;-61
2022/07/27 12:01:59;;;;;;;5.32;1.50;;;22.50;99.90;;;;;;5056044;28;20163;-61
2022/07/27 12:04:29;;;;;;;2.40;1.52;;;22.70;99.90;;;;;;5055757;28;20718;-62
2022/07/27 12:06:58;;;;;;;3.13;1.60;;;22.40;99.90;;;;;;5055856;28;20162;-61
2022/07/27 12:09:25;;;;;;;3.80;1.60;;;21.90;99.90;;;;;;5055448;28;20536;-62
2022/07/27 12:12:13;;;;;;;5.00;1.60;;;21.50;99.90;;;;;;5055305;28;20175;-61
2022/07/27 12:14:49;;;;;;;3.33;1.60;;;21.20;99.90;;;;;;5055835;28;20205;-62
2022/07/27 12:17:18;;;;;;;3.15;1.48;;;21.50;99.90;;;;;;5055154;28;20230;-61
2022/07/27 12:20:05;;;;;;;3.42;1.60;;;22.00;99.90;;;;;;5055484;28;20163;-65
2022/07/27 12:22:39;;;;;;;2.75;1.52;;;22.70;99.90;;;;;;5055314;28;20189;-66
2022/07/27 12:25:08;;;;;;;3.05;1.20;;;23.00;99.90;;;;;;5055385;28;20193;-66
2022/07/27 12:27:34;;;;;;;2.83;1.38;;;23.40;99.90;;;;;;5037185;28;20760;-66
2022/07/27 12:30:12;;;;;;;2.15;1.45;;;23.90;99.90;;;;;;5055597;28;20167;-66
2022/07/27 12:32:43;;;;;;;4.38;1.65;;;24.30;99.90;;;;;;5055306;28;20154;-66
2022/07/27 12:35:21;;;;;;;3.63;1.75;;;24.40;99.90;;;;;;5055314;28;20263;-68
2022/07/27 12:37:48;;;;;;;1.98;1.38;;;24.30;99.90;;;;;;5037423;28;20198;-66
2022/07/27 12:40:15;;;;;;;3.55;1.42;;;24.50;99.90;;;;;;5037545;28;20177;-66
2022/07/27 12:42:41;;;;;;;3.33;1.73;;;24.40;99.90;;;;;;5054990;28;20534;-65
2022/07/27 12:45:18;;;;;;;2.05;1.50;;;23.90;99.90;;;;;;5055855;28;20195;-65
2022/07/27 12:47:45;;;;;;;2.65;1.40;;;23.80;99.90;;;;;;5055482;28;20158;-65
2022/07/27 12:50:16;;;;;;;3.42;1.65;;;24.00;99.90;;;;;;5055182;28;20267;-65
2022/07/27 12:52:50;;;;;;;3.63;1.50;;;24.00;99.90;;;;;;5055092;28;20158;-66
2022/07/27 12:55:17;;;;;;;4.40;1.42;;;24.00;99.90;;;;;;5054896;28;20170;-65